createdAt,value
2023-04-23T00:00:13.870Z,5.80
2023-04-23T00:02:44.819Z,6.75
2023-04-23T00:05:13.008Z,5.95
2023-04-23T00:07:40.706Z,6.50
2023-04-23T00:10:09.048Z,6.20
2023-04-23T00:12:36.062Z,6.95
2023-04-23T00:15:04.393Z,6.60
2023-04-23T00:17:31.388Z,6.47
2023-04-23T00:19:58.221Z,7.00
2023-04-23T00:22:25.050Z,5.93
2023-04-23T00:27:18.763Z,6.05
2023-04-23T00:29:46.448Z,7.60
2023-04-23T00:32:14.553Z,6.25
2023-04-23T00:34:41.560Z,5.70
2023-04-23T00:37:08.950Z,6.57
2023-04-23T00:39:37.637Z,6.32
2023-04-23T00:42:11.554Z,6.88
2023-04-23T00:44:39.557Z,7.22
2023-04-23T00:47:07.895Z,6.80
2023-04-23T00:49:35.576Z,7.35
2023-04-23T00:52:02.958Z,7.82
2023-04-23T00:54:31.200Z,7.43
2023-04-23T00:56:59.406Z,8.63
2023-04-23T00:59:28.197Z,7.50
2023-04-23T01:01:56.666Z,9.40
2023-04-23T01:04:26.296Z,7.65
2023-04-23T01:06:53.528Z,8.05
2023-04-23T01:09:21.123Z,8.32
2023-04-23T01:11:50.929Z,7.97
2023-04-23T01:14:18.035Z,7.88
2023-04-23T01:16:45.645Z,9.20
2023-04-23T01:19:12.882Z,9.13
2023-04-23T01:21:42.925Z,7.80
2023-04-23T01:24:10.735Z,8.60
2023-04-23T01:26:39.073Z,8.27
2023-04-23T01:29:06.044Z,8.77
2023-04-23T01:31:33.138Z,8.38
2023-04-23T01:34:01.279Z,9.73
2023-04-23T01:36:28.621Z,9.43
2023-04-23T01:38:55.465Z,9.20
2023-04-23T01:41:22.794Z,7.78
2023-04-23T01:43:49.850Z,8.38
2023-04-23T01:46:16.974Z,10.07
2023-04-23T01:48:44.068Z,10.55
2023-04-23T01:51:11.873Z,9.30
2023-04-23T01:56:06.555Z,11.73
2023-04-23T01:58:33.451Z,8.70
2023-04-23T02:03:28.655Z,9.43
2023-04-23T02:05:55.725Z,9.27
2023-04-23T02:10:49.750Z,9.27
2023-04-23T02:13:16.618Z,10.20
2023-04-23T02:18:10.900Z,10.95
2023-04-23T02:20:40.741Z,9.27
2023-04-23T02:23:08.859Z,9.40
2023-04-23T02:25:38.362Z,9.23
2023-04-23T02:28:08.376Z,9.95
2023-04-23T02:30:35.589Z,10.50
2023-04-23T02:33:03.452Z,9.80
2023-04-23T02:35:31.453Z,12.00
2023-04-23T02:37:58.456Z,10.20
2023-04-23T02:42:52.506Z,12.33
2023-04-23T02:45:19.364Z,13.43
2023-04-23T02:50:13.086Z,10.77
2023-04-23T02:52:39.895Z,10.90
2023-04-23T02:57:35.603Z,11.43
2023-04-23T03:00:06.478Z,10.00
2023-04-23T03:02:39.379Z,12.65
2023-04-23T03:05:07.485Z,11.77
2023-04-23T03:07:34.353Z,11.77
2023-04-23T03:10:05.132Z,12.57
2023-04-23T03:12:34.751Z,10.20
2023-04-23T03:15:05.099Z,11.27
2023-04-23T03:17:34.610Z,11.73
2023-04-23T03:20:01.986Z,9.50
2023-04-23T03:22:29.698Z,10.50
2023-04-23T03:27:23.288Z,9.13
2023-04-23T03:32:16.874Z,10.13
2023-04-23T03:34:43.917Z,11.52
2023-04-23T03:37:11.434Z,10.00
2023-04-23T03:39:39.246Z,10.30
2023-04-23T03:42:07.106Z,8.90
2023-04-23T03:44:34.342Z,10.05
2023-04-23T03:47:01.550Z,10.38
2023-04-23T03:51:56.331Z,8.63
2023-04-23T03:54:25.854Z,9.18
2023-04-23T03:57:10.131Z,10.02
2023-04-23T03:59:45.165Z,10.88
2023-04-23T04:04:39.101Z,10.40
2023-04-23T04:07:09.029Z,10.80
2023-04-23T04:09:39.610Z,10.68
2023-04-23T04:12:07.142Z,11.23
2023-04-23T04:14:34.616Z,11.70
2023-04-23T04:19:28.075Z,10.85
2023-04-23T04:21:54.895Z,9.35
2023-04-23T04:26:52.741Z,10.40
2023-04-23T04:29:21.279Z,9.35
2023-04-23T04:31:48.800Z,8.68
2023-04-23T04:34:15.827Z,10.38
2023-04-23T04:39:09.754Z,10.70
2023-04-23T04:41:37.309Z,9.27
2023-04-23T04:44:04.332Z,8.65
2023-04-23T04:46:31.904Z,9.45
2023-04-23T04:48:58.934Z,11.00
2023-04-23T04:53:53.386Z,10.13
2023-04-23T04:56:20.458Z,9.15
2023-04-23T04:58:47.282Z,9.85
2023-04-23T05:03:41.262Z,9.48
2023-04-23T05:06:08.299Z,9.43
2023-04-23T05:11:03.851Z,10.05
2023-04-23T05:13:30.812Z,8.77
2023-04-23T05:15:57.712Z,10.80
2023-04-23T05:20:51.732Z,9.73
2023-04-23T05:23:18.970Z,8.63
2023-04-23T05:25:45.758Z,9.35
2023-04-23T05:28:12.613Z,9.60
2023-04-23T05:30:39.544Z,11.52
2023-04-23T05:35:33.635Z,8.67
2023-04-23T05:38:01.503Z,10.10
2023-04-23T05:40:28.384Z,8.80
2023-04-23T05:45:22.156Z,8.25
2023-04-23T05:47:48.893Z,6.47
2023-04-23T05:50:16.009Z,7.97
2023-04-23T05:52:42.968Z,7.32
2023-04-23T05:55:15.620Z,8.23
2023-04-23T05:57:42.383Z,6.88
2023-04-23T06:00:09.903Z,6.63
2023-04-23T06:02:40.560Z,6.80
2023-04-23T06:05:08.295Z,8.05
2023-04-23T06:07:36.238Z,6.70
2023-04-23T06:10:05.612Z,6.00
2023-04-23T06:12:32.542Z,6.03
2023-04-23T06:17:26.036Z,6.60
2023-04-23T06:19:52.794Z,7.15
2023-04-23T06:22:19.586Z,4.07
2023-04-23T06:24:46.434Z,5.57
2023-04-23T06:29:45.907Z,5.18
2023-04-23T06:32:13.391Z,4.78
2023-04-23T06:37:16.867Z,5.30
2023-04-23T06:42:10.348Z,7.00
2023-04-23T06:45:05.886Z,5.00
2023-04-23T06:47:33.227Z,5.53
2023-04-23T06:50:00.197Z,9.48
2023-04-23T06:52:27.374Z,13.30
2023-04-23T06:54:54.060Z,6.10
2023-04-23T06:57:21.893Z,6.63
2023-04-23T06:59:48.746Z,5.55
2023-04-23T07:02:17.109Z,5.10
2023-04-23T07:07:12.056Z,4.90
2023-04-23T07:09:38.754Z,6.47
2023-04-23T07:12:05.686Z,7.43
2023-04-23T07:14:32.584Z,5.15
2023-04-23T07:16:59.483Z,4.32
2023-04-23T07:19:27.373Z,4.78
2023-04-23T07:21:54.151Z,4.90
2023-04-23T07:26:47.477Z,6.15
2023-04-23T07:29:15.366Z,5.07
2023-04-23T07:31:42.234Z,4.38
2023-04-23T07:34:09.816Z,5.50
2023-04-23T07:36:36.763Z,4.40
2023-04-23T07:39:05.155Z,4.53
2023-04-23T07:41:32.650Z,5.32
2023-04-23T07:43:59.617Z,5.28
2023-04-23T07:46:26.551Z,4.68
2023-04-23T07:48:53.524Z,4.43
2023-04-23T07:51:22.398Z,3.72
2023-04-23T07:53:51.829Z,4.78
2023-04-23T07:56:18.693Z,4.72
2023-04-23T07:58:45.512Z,5.20
2023-04-23T08:01:12.309Z,5.30
2023-04-23T08:06:06.429Z,4.10
2023-04-23T08:08:33.179Z,4.32
2023-04-23T08:13:26.988Z,3.47
2023-04-23T08:15:53.789Z,3.45
2023-04-23T08:20:47.296Z,3.72
2023-04-23T08:25:40.753Z,4.07
2023-04-23T08:30:34.366Z,4.28
2023-04-23T08:33:01.292Z,3.50
2023-04-23T08:35:28.060Z,3.20
2023-04-23T08:37:54.800Z,3.47
2023-04-23T08:40:21.573Z,3.17
2023-04-23T08:42:51.636Z,2.85
2023-04-23T08:45:19.113Z,2.97
2023-04-23T08:47:45.910Z,2.78
2023-04-23T08:50:17.881Z,2.42
2023-04-23T08:52:52.429Z,2.13
2023-04-23T08:55:20.519Z,2.03
2023-04-23T08:57:48.121Z,3.15
2023-04-23T09:00:16.831Z,2.63
2023-04-23T09:02:45.918Z,3.10
2023-04-23T09:05:13.612Z,2.90
2023-04-23T09:07:41.592Z,2.40
2023-04-23T09:10:11.293Z,3.22
2023-04-23T09:12:40.927Z,2.90
2023-04-23T09:15:12.703Z,3.13
2023-04-23T09:17:44.360Z,2.45
2023-04-23T09:20:12.697Z,2.25
2023-04-23T09:22:47.769Z,2.40
2023-04-23T09:25:18.229Z,2.53
2023-04-23T09:27:46.409Z,2.65
2023-04-23T09:30:14.785Z,2.97
2023-04-23T09:32:43.452Z,3.50
2023-04-23T09:35:15.247Z,3.22
2023-04-23T09:37:43.866Z,3.22
2023-04-23T09:40:14.148Z,2.88
2023-04-23T09:42:41.307Z,3.17
2023-04-23T09:45:12.738Z,3.22
2023-04-23T09:47:41.493Z,2.95
2023-04-23T09:50:10.643Z,3.10
2023-04-23T09:52:41.143Z,3.38
2023-04-23T09:55:08.591Z,3.30
2023-04-23T09:57:41.008Z,2.72
2023-04-23T10:00:20.784Z,2.40
2023-04-23T10:02:52.256Z,2.70
2023-04-23T10:05:24.818Z,2.40
2023-04-23T10:07:59.773Z,3.10
2023-04-23T10:10:26.738Z,1.88
2023-04-23T10:12:55.898Z,2.50
2023-04-23T10:15:27.303Z,2.97
2023-04-23T10:17:55.669Z,2.53
2023-04-23T10:20:23.580Z,2.47
2023-04-23T10:22:52.739Z,2.35
2023-04-23T10:25:21.178Z,2.30
2023-04-23T10:27:54.414Z,3.00
2023-04-23T10:30:22.632Z,2.28
2023-04-23T10:32:50.922Z,2.50
2023-04-23T10:35:18.564Z,3.13
2023-04-23T10:37:48.065Z,2.08
2023-04-23T10:40:21.989Z,2.25
2023-04-23T10:42:49.658Z,2.45
2023-04-23T10:47:49.099Z,2.45
2023-04-23T10:50:27.875Z,2.40
2023-04-23T10:52:56.953Z,2.60
2023-04-23T10:55:26.288Z,1.75
2023-04-23T10:58:04.674Z,1.80
2023-04-23T11:00:46.817Z,2.63
2023-04-23T11:03:37.301Z,2.35
2023-04-23T11:06:07.147Z,2.28
2023-04-23T11:08:37.524Z,2.85
2023-04-23T11:11:09.216Z,2.70
2023-04-23T11:13:35.989Z,2.20
2023-04-23T11:16:16.055Z,2.60
2023-04-23T11:18:59.647Z,2.10
2023-04-23T11:22:01.082Z,2.33
2023-04-23T11:24:33.926Z,2.80
2023-04-23T11:27:01.261Z,2.60
2023-04-23T11:29:28.728Z,2.38
2023-04-23T11:34:26.266Z,2.05
2023-04-23T11:36:57.472Z,2.03
2023-04-23T11:39:24.775Z,1.88
2023-04-23T11:41:52.412Z,2.00
2023-04-23T11:44:21.249Z,2.08
2023-04-23T11:46:49.641Z,2.45
2023-04-23T11:49:21.676Z,1.95
2023-04-23T11:51:48.709Z,1.92
2023-04-23T11:54:16.251Z,2.13
2023-04-23T11:56:43.623Z,1.85
2023-04-23T11:59:10.491Z,2.28
2023-04-23T12:01:44.165Z,2.45
2023-04-23T12:04:15.096Z,2.40
2023-04-23T12:06:44.405Z,1.80
2023-04-23T12:09:12.646Z,2.28
2023-04-23T12:11:44.061Z,2.22
2023-04-23T12:14:12.668Z,2.55
2023-04-23T12:16:45.032Z,2.20
2023-04-23T12:19:16.994Z,2.03
2023-04-23T12:21:55.803Z,2.00
2023-04-23T12:24:23.747Z,2.80
2023-04-23T12:26:55.979Z,1.60
2023-04-23T12:29:23.354Z,1.70
2023-04-23T12:31:52.441Z,1.85
2023-04-23T12:34:21.000Z,1.90
2023-04-23T12:36:50.481Z,2.20
2023-04-23T12:39:24.997Z,2.30
2023-04-23T12:42:05.658Z,1.83
2023-04-23T12:44:37.977Z,1.65
2023-04-23T12:47:11.277Z,2.33
2023-04-23T12:49:40.881Z,2.00
2023-04-23T12:52:08.490Z,2.10
2023-04-23T12:54:37.411Z,1.77
2023-04-23T12:57:05.901Z,1.52
2023-04-23T12:59:33.629Z,2.00
2023-04-23T13:02:04.599Z,1.42
2023-04-23T13:04:33.901Z,1.30
2023-04-23T13:07:01.425Z,1.95
2023-04-23T13:09:31.271Z,1.58
2023-04-23T13:11:59.826Z,1.48
2023-04-23T13:14:27.161Z,2.15
2023-04-23T13:16:54.415Z,2.00
2023-04-23T13:19:21.311Z,2.03
2023-04-23T13:21:48.094Z,1.48
2023-04-23T13:24:16.084Z,1.60
2023-04-23T13:26:43.116Z,2.75
2023-04-23T13:29:09.922Z,10.27
2023-04-23T13:31:37.147Z,10.57
2023-04-23T13:34:04.030Z,14.73
2023-04-23T13:36:30.875Z,2.20
2023-04-23T13:38:57.759Z,1.75
2023-04-23T13:41:24.645Z,1.17
2023-04-23T13:43:51.386Z,1.50
2023-04-23T13:46:19.713Z,1.77
2023-04-23T13:48:46.790Z,3.72
2023-04-23T13:51:30.680Z,5.68
2023-04-23T13:54:01.391Z,3.88
2023-04-23T13:56:30.829Z,4.80
2023-04-23T14:01:35.370Z,3.70
2023-04-23T14:04:04.632Z,1.23
2023-04-23T14:06:31.672Z,1.38
2023-04-23T14:08:58.723Z,1.35
2023-04-23T14:11:26.031Z,4.82
2023-04-23T14:13:52.962Z,1.83
2023-04-23T14:16:20.140Z,1.58
2023-04-23T14:18:47.035Z,1.50
2023-04-23T14:21:16.303Z,1.27
2023-04-23T14:23:50.926Z,1.40
2023-04-23T14:26:48.650Z,2.22
2023-04-23T14:29:24.129Z,1.23
2023-04-23T14:31:52.765Z,1.55
2023-04-23T14:34:19.777Z,1.10
2023-04-23T14:36:49.177Z,1.40
2023-04-23T14:39:16.411Z,2.88
2023-04-23T14:41:43.403Z,1.70
2023-04-23T14:44:10.387Z,1.00
2023-04-23T14:46:37.709Z,0.85
2023-04-23T14:49:04.743Z,1.50
2023-04-23T14:51:31.885Z,1.00
2023-04-23T14:53:59.262Z,1.20
2023-04-23T14:56:29.311Z,1.30
2023-04-23T14:58:56.349Z,1.23
2023-04-23T15:01:24.197Z,1.85
2023-04-23T15:03:53.470Z,1.50
2023-04-23T15:06:21.056Z,1.20
2023-04-23T15:08:48.603Z,2.20
2023-04-23T15:11:15.584Z,1.33
2023-04-23T15:13:49.728Z,1.10
2023-04-23T15:16:48.102Z,1.35
2023-04-23T15:19:19.821Z,1.30
2023-04-23T15:21:51.102Z,1.10
2023-04-23T15:24:18.151Z,1.23
2023-04-23T15:26:49.656Z,1.20
2023-04-23T15:29:16.559Z,1.20
2023-04-23T15:31:43.479Z,1.35
2023-04-23T15:34:11.910Z,0.90
2023-04-23T15:36:38.788Z,1.00
2023-04-23T15:39:07.243Z,1.15
2023-04-23T15:41:39.586Z,1.10
2023-04-23T15:44:11.719Z,1.05
2023-04-23T15:46:38.729Z,0.90
2023-04-23T15:49:05.635Z,0.93
2023-04-23T15:51:32.977Z,0.98
2023-04-23T15:54:01.977Z,1.10
2023-04-23T15:56:28.986Z,1.02
2023-04-23T15:58:55.719Z,1.20
2023-04-23T16:01:24.209Z,1.00
2023-04-23T16:04:08.461Z,0.90
2023-04-23T16:06:36.917Z,1.15
2023-04-23T16:09:06.827Z,1.02
2023-04-23T16:11:35.681Z,0.90
2023-04-23T16:14:03.257Z,1.38
2023-04-23T16:16:30.758Z,1.45
2023-04-23T16:18:57.878Z,2.10
2023-04-23T16:21:24.746Z,2.05
2023-04-23T16:26:18.305Z,1.73
2023-04-23T16:31:27.949Z,1.20
2023-04-23T16:33:54.774Z,1.42
2023-04-23T16:38:49.446Z,1.73
2023-04-23T16:41:18.534Z,1.30
2023-04-23T16:43:47.318Z,0.88
2023-04-23T16:46:17.737Z,1.95
2023-04-23T16:48:45.212Z,1.65
2023-04-23T16:51:12.614Z,4.25
2023-04-23T16:53:39.494Z,8.00
